Antonello — IKVS — position and weather

sailwx.info

Track history (hours):
 
Tides and Currents Weather Stations Pressure Air Temp Water Temp Dewpoint Dewpoint Depression Visibility Wind Speed Wind Dir Waves Ship Positions

Antonello

Last reported at 2014-Oct-17 05:33 UTC. Time now 2014-Nov-26 11:16 UTC.
Position N 38°07' E 015°34'.
Warning: this ship's position is 40 days out of date.

Length 70 m; draft 4.5 m.

Type: Ship. MMSI: 247422000.

Date/timePositionNaut miles runAvg speedWind from/ knotsBaromVisibWave heightAir tempDewpointWater temp
2014-Oct-17 05:33N 38°07' E 015°34'11 9.8
2014-Oct-17 04:25N 38°17' E 015°40'1110.2
2014-Oct-17 03:23N 38°22' E 015°28'8 0.2
2014-Oct-15 16:08N 38°29' E 015°22'26 4.5
2014-Oct-15 10:24N 38°27' E 015°54'0 0.0
2014-Oct-15 09:33N 38°27' E 015°54'0 0.0
2014-Oct-15 08:33N 38°27' E 015°54'0 0.0
2014-Oct-15 07:33N 38°27' E 015°54'1 0.3
2014-Oct-15 05:11N 38°27' E 015°53'41 1.2
2014-Oct-13 17:17N 38°34' E 015°01'7 8.7
2014-Oct-13 16:28N 38°33' E 015°10'8 8.5
2014-Oct-13 15:32N 38°32' E 015°20'8 8.5
2014-Oct-13 14:33N 38°31' E 015°31'19 3.6
2014-Oct-13 09:22N 38°27' E 015°54'0 0.0
2014-Oct-13 08:33N 38°27' E 015°54'0 0.0
2014-Oct-13 07:26N 38°27' E 015°54'29 1.2
2014-Oct-12 07:15N 38°26' E 015°18'7 8.0
2014-Oct-12 06:23N 38°26' E 015°26'10 0.6
2014-Oct-11 13:15N 38°35' E 015°20'14 0.6
2014-Oct-10 13:14N 38°31' E 015°03'14 8.2
2014-Oct-10 11:29N 38°30' E 015°21'8 8.2
2014-Oct-10 10:33N 38°29' E 015°31'  
Track history (hours):
 
Tides and Currents Weather Stations Pressure Air Temp Water Temp Dewpoint Dewpoint Depression Visibility Wind Speed Wind Dir Waves Ship Positions

Antonello

Last reported at 2014-Oct-17 05:33 UTC. Time now 2014-Nov-26 11:16 UTC.
Position N 38°07' E 015°34'.
Warning: this ship's position is 40 days out of date.

Length 70 m; draft 4.5 m.

Type: Ship. MMSI: 247422000.

Date/timePositionNaut miles runAvg speedWind from/ knotsBaromVisibWave heightAir tempDewpointWater temp
2014-Oct-17 05:33N 38°07' E 015°34'11 9.8
2014-Oct-17 04:25N 38°17' E 015°40'1110.2
2014-Oct-17 03:23N 38°22' E 015°28'8 0.2
2014-Oct-15 16:08N 38°29' E 015°22'26 4.5
2014-Oct-15 10:24N 38°27' E 015°54'0 0.0
2014-Oct-15 09:33N 38°27' E 015°54'0 0.0
2014-Oct-15 08:33N 38°27' E 015°54'0 0.0
2014-Oct-15 07:33N 38°27' E 015°54'1 0.3
2014-Oct-15 05:11N 38°27' E 015°53'41 1.2
2014-Oct-13 17:17N 38°34' E 015°01'7 8.7
2014-Oct-13 16:28N 38°33' E 015°10'8 8.5
2014-Oct-13 15:32N 38°32' E 015°20'8 8.5
2014-Oct-13 14:33N 38°31' E 015°31'19 3.6
2014-Oct-13 09:22N 38°27' E 015°54'0 0.0
2014-Oct-13 08:33N 38°27' E 015°54'0 0.0
2014-Oct-13 07:26N 38°27' E 015°54'29 1.2
2014-Oct-12 07:15N 38°26' E 015°18'7 8.0
2014-Oct-12 06:23N 38°26' E 015°26'10 0.6
2014-Oct-11 13:15N 38°35' E 015°20'14 0.6
2014-Oct-10 13:14N 38°31' E 015°03'14 8.2
2014-Oct-10 11:29N 38°30' E 015°21'8 8.2
2014-Oct-10 10:33N 38°29' E 015°31'  

Dump ship's entire track history